Time;durP1;ratioP1;P1;durP2;ratioP2;P2;SDS_P1;SDS_P2;PMS_P1;PMS_P2;Temp;Humidity;BMP_temperature;BMP_pressure;BME280_temperature;BME280_humidity;BME280_pressure;Samples;Min_cycle;Max_cycle;Signal;HPM_P1;HPM_P2
2021/12/21 00:00:12;;;;;;;8.57;3.20;;;-1.40;99.90;;;;;;4981537;28;20885;-70
2021/12/21 00:02:40;;;;;;;4.10;2.30;;;-1.40;99.90;;;;;;4979784;28;20486;-76
2021/12/21 00:05:09;;;;;;;8.77;3.30;;;-1.40;99.90;;;;;;4979221;28;20981;-74
2021/12/21 00:07:36;;;;;;;8.83;3.27;;;-1.40;99.90;;;;;;4982092;28;20509;-72
2021/12/21 00:10:03;;;;;;;8.47;3.27;;;-1.40;99.90;;;;;;4985093;28;20225;-73
2021/12/21 00:12:32;;;;;;;7.17;2.77;;;-1.40;99.90;;;;;;4978655;28;20228;-74
2021/12/21 00:15:07;;;;;;;7.07;3.20;;;-1.40;99.90;;;;;;4977657;28;20216;-70
2021/12/21 00:25:21;;;;;;;5.47;2.60;;;-1.30;99.90;;;;;;4979453;28;20739;-71
2021/12/21 00:27:51;;;;;;;5.70;2.97;;;-1.30;99.90;;;;;;4978439;28;20730;-70
2021/12/21 00:30:19;;;;;;;5.17;2.60;;;-1.20;99.90;;;;;;4982433;28;20205;-74
2021/12/21 00:32:45;;;;;;;4.50;2.60;;;-1.20;99.90;;;;;;4979543;28;20531;-71
2021/12/21 00:35:12;;;;;;;5.20;2.63;;;-1.20;99.90;;;;;;4979772;28;20197;-70
2021/12/21 00:37:41;;;;;;;4.90;2.37;;;-1.20;99.90;;;;;;4979907;28;20479;-75
2021/12/21 00:40:09;;;;;;;8.13;2.80;;;-1.30;99.90;;;;;;4980044;28;20452;-76
2021/12/21 00:42:36;;;;;;;6.03;2.63;;;-1.30;99.90;;;;;;4979562;28;20532;-70
2021/12/21 00:45:04;;;;;;;6.20;2.90;;;-1.40;99.90;;;;;;4979080;28;20999;-70
2021/12/21 00:47:33;;;;;;;6.93;2.80;;;-1.40;99.90;;;;;;4979059;28;20252;-71
2021/12/21 00:50:03;;;;;;;7.23;3.30;;;-1.40;99.90;;;;;;4980108;28;20455;-72
2021/12/21 00:52:30;;;;;;;5.43;2.90;;;-1.50;99.90;;;;;;4978926;28;21809;-75
2021/12/21 00:54:57;;;;;;;6.30;2.67;;;-1.50;99.90;;;;;;4976266;28;20225;-75
2021/12/21 00:57:23;;;;;;;4.87;2.57;;;-1.50;99.90;;;;;;4979659;28;20542;-70
2021/12/21 00:59:50;;;;;;;4.10;2.40;;;-1.60;99.90;;;;;;4978743;28;20891;-72
2021/12/21 01:02:17;;;;;;;8.17;2.47;;;-1.60;99.90;;;;;;4981321;28;20464;-74
2021/12/21 01:04:47;;;;;;;4.23;2.50;;;-1.60;99.90;;;;;;4976457;28;20295;-70
2021/12/21 01:12:14;;;;;;;5.67;2.40;;;-1.60;99.90;;;;;;4980029;28;20565;-70
2021/12/21 01:17:27;;;;;;;4.07;2.60;;;-1.60;99.90;;;;;;4979900;28;20486;-70
2021/12/21 01:20:04;;;;;;;4.67;2.67;;;-1.70;99.90;;;;;;4979887;28;20457;-76
2021/12/21 01:27:56;;;;;;;6.77;2.23;;;-1.80;99.90;;;;;;4978728;28;20551;-70
2021/12/21 01:30:41;;;;;;;7.30;2.57;;;-1.60;99.90;;;;;;4981280;28;20462;-74
2021/12/21 01:33:27;;;;;;;4.37;2.40;;;-1.60;99.90;;;;;;4978992;28;21033;-73
2021/12/21 01:35:56;;;;;;;10.70;2.93;;;-1.50;99.90;;;;;;4980968;28;20483;-70
2021/12/21 01:38:40;;;;;;;4.93;2.33;;;-1.50;99.90;;;;;;4977040;28;20460;-70
2021/12/21 01:41:22;;;;;;;4.20;2.17;;;-1.60;99.90;;;;;;4977980;28;20902;-73
2021/12/21 01:44:03;;;;;;;9.43;2.67;;;-1.70;99.90;;;;;;4981403;28;20798;-75
2021/12/21 01:49:36;;;;;;;5.43;2.60;;;-1.60;99.90;;;;;;4979543;28;20871;-71
2021/12/21 01:52:08;;;;;;;5.23;2.63;;;-1.70;99.90;;;;;;4977971;28;20467;-70
2021/12/21 01:54:35;;;;;;;6.23;2.60;;;-1.80;99.90;;;;;;4976469;28;20475;-69
2021/12/21 01:57:04;;;;;;;4.67;2.47;;;-1.80;99.90;;;;;;4977753;28;20488;-74
2021/12/21 01:59:32;;;;;;;6.93;3.00;;;-1.80;99.90;;;;;;4980340;28;20441;-74
2021/12/21 02:01:58;;;;;;;10.07;4.03;;;-1.90;99.90;;;;;;4977236;28;20455;-70
2021/12/21 02:04:25;;;;;;;9.70;3.93;;;-1.90;99.90;;;;;;4978782;28;20509;-71
2021/12/21 02:06:52;;;;;;;6.57;3.43;;;-1.90;99.90;;;;;;4979658;28;20459;-73
2021/12/21 02:09:22;;;;;;;8.20;3.37;;;-2.00;99.90;;;;;;4977718;28;20461;-73
2021/12/21 02:11:49;;;;;;;9.33;3.83;;;-1.90;99.90;;;;;;4979314;28;20525;-70
2021/12/21 02:14:16;;;;;;;10.40;4.33;;;-1.70;99.90;;;;;;4974646;28;20870;-71
2021/12/21 02:19:34;;;;;;;7.93;3.70;;;-1.70;99.90;;;;;;4978356;28;20444;-72
2021/12/21 02:22:18;;;;;;;5.10;2.90;;;-1.70;99.90;;;;;;4977298;28;20455;-70
2021/12/21 02:25:00;;;;;;;7.53;2.97;;;-1.80;99.90;;;;;;4977359;28;20480;-77
2021/12/21 02:27:40;;;;;;;5.67;3.40;;;-1.90;99.90;;;;;;4976320;28;20471;-76
2021/12/21 02:30:09;;;;;;;6.60;2.70;;;-1.80;99.90;;;;;;4979913;28;20468;-70
2021/12/21 02:32:36;;;;;;;9.77;4.33;;;-1.80;99.90;;;;;;4978942;28;20456;-70
2021/12/21 02:35:03;;;;;;;7.50;3.37;;;-1.80;99.90;;;;;;4978727;28;20478;-70
2021/12/21 02:37:29;;;;;;;6.50;3.20;;;-1.90;99.90;;;;;;4977636;28;20503;-70
2021/12/21 02:39:56;;;;;;;6.03;3.00;;;-2.00;99.90;;;;;;4977313;28;20451;-71
2021/12/21 02:42:23;;;;;;;9.30;4.10;;;-2.00;99.90;;;;;;4977241;28;20502;-74
2021/12/21 02:44:53;;;;;;;10.23;3.53;;;-2.00;99.90;;;;;;4977754;28;20826;-73
2021/12/21 02:47:20;;;;;;;13.93;4.43;;;-2.10;99.90;;;;;;4979012;28;20464;-70
2021/12/21 02:49:47;;;;;;;9.33;3.80;;;-2.10;99.90;;;;;;4978343;28;20444;-70
2021/12/21 02:52:13;;;;;;;10.73;3.67;;;-2.10;99.90;;;;;;4978051;28;20456;-76
2021/12/21 02:54:40;;;;;;;8.90;4.00;;;-2.10;99.90;;;;;;4979664;28;21741;-72
2021/12/21 02:57:07;;;;;;;7.23;3.23;;;-1.80;99.90;;;;;;4977295;28;20491;-75
2021/12/21 02:59:34;;;;;;;9.60;3.90;;;-1.90;99.90;;;;;;4977503;28;21250;-70
2021/12/21 03:02:02;;;;;;;8.77;4.23;;;-1.90;99.90;;;;;;4977830;28;21096;-69
2021/12/21 03:04:29;;;;;;;9.17;3.80;;;-1.90;99.90;;;;;;4978206;28;20778;-75
2021/12/21 03:14:37;;;;;;;6.20;3.87;;;-2.10;99.90;;;;;;4975670;28;20907;-70
2021/12/21 03:17:05;;;;;;;10.03;4.20;;;-2.10;99.90;;;;;;4982860;28;20486;-76
2021/12/21 03:19:32;;;;;;;8.40;3.70;;;-2.00;99.90;;;;;;4984516;28;20449;-75
2021/12/21 03:21:58;;;;;;;8.70;3.47;;;-2.00;99.90;;;;;;4985320;28;20456;-74
2021/12/21 03:24:25;;;;;;;6.13;3.27;;;-2.10;99.90;;;;;;4986092;28;20498;-74
2021/12/21 03:26:52;;;;;;;7.37;3.67;;;-2.00;99.90;;;;;;4982008;28;20463;-71
2021/12/21 03:29:18;;;;;;;7.60;3.03;;;-2.00;99.90;;;;;;4976542;28;20492;-75
2021/12/21 03:31:45;;;;;;;7.23;3.80;;;-2.10;99.90;;;;;;4993119;28;20526;-73
2021/12/21 03:34:12;;;;;;;11.37;3.77;;;-2.10;99.90;;;;;;4976488;28;20531;-70
2021/12/21 03:36:40;;;;;;;8.77;4.23;;;-2.10;99.90;;;;;;4977968;28;20548;-70
2021/12/21 03:39:10;;;;;;;8.97;4.07;;;-2.20;99.90;;;;;;4977282;28;21058;-73
2021/12/21 03:41:40;;;;;;;8.97;4.10;;;-2.00;99.90;;;;;;4978219;28;20460;-72
2021/12/21 03:44:09;;;;;;;8.43;3.43;;;-2.10;99.90;;;;;;4976024;28;20983;-70
2021/12/21 03:46:44;;;;;;;6.07;2.93;;;-2.10;99.90;;;;;;4977127;28;20460;-71
2021/12/21 03:49:50;;;;;;;8.33;3.40;;;-2.10;99.90;;;;;;4977708;28;20452;-71
2021/12/21 03:51:58;;;;;;;7.90;3.23;;;-2.00;99.90;;;;;;4975395;28;20471;-73
2021/12/21 03:54:24;;;;;;;10.03;4.00;;;-2.00;99.90;;;;;;4976525;28;20476;-70
2021/12/21 03:56:52;;;;;;;8.93;3.47;;;-1.90;99.90;;;;;;4977154;28;20476;-70
2021/12/21 03:59:20;;;;;;;6.67;3.20;;;-1.90;99.90;;;;;;4976528;28;20448;-71
2021/12/21 04:01:48;;;;;;;8.37;3.37;;;-2.10;99.90;;;;;;4978501;28;20512;-71
2021/12/21 04:04:18;;;;;;;7.30;2.80;;;-2.20;99.90;;;;;;4976003;28;22191;-72
2021/12/21 04:06:46;;;;;;;6.90;3.47;;;-2.10;99.90;;;;;;4975271;28;21132;-71
2021/12/21 04:09:13;;;;;;;5.70;3.17;;;-2.20;99.90;;;;;;4975579;28;20490;-74
2021/12/21 04:11:40;;;;;;;6.87;3.47;;;-2.20;99.90;;;;;;4979189;28;20451;-74
2021/12/21 04:14:07;;;;;;;6.73;3.60;;;-2.10;99.90;;;;;;4974574;28;20483;-74
2021/12/21 04:16:34;;;;;;;7.47;3.63;;;-2.10;99.90;;;;;;4976620;28;20518;-71
2021/12/21 04:19:00;;;;;;;8.47;4.23;;;-2.30;99.90;;;;;;4975792;28;20471;-71
2021/12/21 04:21:28;;;;;;;8.27;3.73;;;-2.30;99.90;;;;;;4976669;28;20485;-70
2021/12/21 04:23:54;;;;;;;7.67;3.60;;;-2.30;99.90;;;;;;4976194;28;20475;-73
2021/12/21 04:26:22;;;;;;;5.27;2.50;;;-2.30;99.90;;;;;;4975098;28;20469;-70
2021/12/21 04:28:48;;;;;;;6.97;2.90;;;-2.40;99.90;;;;;;4976705;28;20987;-71
2021/12/21 04:31:15;;;;;;;6.33;2.90;;;-2.40;99.90;;;;;;4977820;28;20459;-71
2021/12/21 04:33:42;;;;;;;6.33;2.93;;;-2.50;99.90;;;;;;4977577;28;20476;-70
2021/12/21 04:36:11;;;;;;;8.00;3.40;;;-2.50;99.90;;;;;;4975925;28;20996;-70
2021/12/21 04:38:42;;;;;;;7.43;3.07;;;-2.30;99.90;;;;;;4976596;28;20554;-72
2021/12/21 04:41:15;;;;;;;5.90;2.93;;;-2.30;99.90;;;;;;4979664;28;20460;-72
2021/12/21 04:43:43;;;;;;;5.93;3.50;;;-2.40;99.90;;;;;;4979762;28;20510;-73
2021/12/21 04:46:10;;;;;;;7.70;2.93;;;-2.40;99.90;;;;;;4979940;28;20457;-69
2021/12/21 04:48:38;;;;;;;5.23;2.77;;;-2.50;99.90;;;;;;4979267;28;20463;-71
2021/12/21 04:51:05;;;;;;;5.13;2.67;;;-2.50;99.90;;;;;;4980145;28;20517;-74
2021/12/21 04:53:32;;;;;;;6.10;2.80;;;-2.60;99.90;;;;;;4979757;28;20480;-75
2021/12/21 04:55:58;;;;;;;8.60;3.30;;;-2.50;99.90;;;;;;4980063;28;20474;-69
2021/12/21 04:58:25;;;;;;;7.40;3.60;;;-2.50;99.90;;;;;;4979544;28;20483;-73
2021/12/21 05:00:52;;;;;;;6.30;2.80;;;-2.30;99.90;;;;;;4980147;28;20451;-72
2021/12/21 05:03:19;;;;;;;4.17;2.47;;;-2.10;99.90;;;;;;4978065;28;20522;-73
2021/12/21 05:05:45;;;;;;;7.43;3.13;;;-2.00;99.90;;;;;;4981817;28;20458;-72
2021/12/21 05:08:21;;;;;;;7.97;3.43;;;-1.90;99.90;;;;;;4977184;28;20463;-71
2021/12/21 05:10:55;;;;;;;4.77;2.73;;;-2.10;99.90;;;;;;4979223;28;20863;-73
2021/12/21 05:13:25;;;;;;;9.20;3.00;;;-2.30;99.90;;;;;;4981906;28;20479;-73
2021/12/21 05:15:51;;;;;;;10.20;2.50;;;-2.30;99.90;;;;;;4979122;28;20456;-75
2021/12/21 05:18:19;;;;;;;9.30;3.20;;;-2.30;99.90;;;;;;4978282;28;20480;-70
2021/12/21 05:20:46;;;;;;;7.80;3.23;;;-2.40;99.90;;;;;;4978535;28;20449;-71
2021/12/21 05:23:13;;;;;;;7.07;3.20;;;-2.50;99.90;;;;;;4980181;28;20851;-70
2021/12/21 05:25:40;;;;;;;6.83;3.27;;;-2.50;99.90;;;;;;4974991;28;21268;-74
2021/12/21 05:28:08;;;;;;;5.77;3.00;;;-2.50;99.90;;;;;;4978475;28;20467;-70
2021/12/21 05:30:36;;;;;;;5.80;3.23;;;-2.50;99.90;;;;;;4981532;28;20471;-70
2021/12/21 05:33:04;;;;;;;7.73;3.40;;;-2.60;99.90;;;;;;4980517;28;20508;-72
2021/12/21 05:35:32;;;;;;;9.07;3.37;;;-2.60;99.90;;;;;;4978461;28;20453;-74
2021/12/21 05:38:03;;;;;;;6.00;3.17;;;-2.70;99.90;;;;;;4978841;28;20485;-72
2021/12/21 05:40:34;;;;;;;5.30;2.93;;;-2.80;99.90;;;;;;4979508;28;20452;-70
2021/12/21 05:43:02;;;;;;;5.20;2.63;;;-2.80;99.90;;;;;;4980227;28;20475;-71
2021/12/21 05:45:29;;;;;;;6.57;2.77;;;-2.90;99.90;;;;;;4980771;28;20471;-73
2021/12/21 05:47:55;;;;;;;7.13;2.27;;;-2.90;99.90;;;;;;4977188;28;20963;-71
2021/12/21 05:50:22;;;;;;;5.90;2.60;;;-2.70;99.90;;;;;;4992178;28;20832;-73
2021/12/21 05:52:50;;;;;;;9.87;4.67;;;-2.50;99.90;;;;;;4977602;28;20810;-74
2021/12/21 05:55:19;;;;;;;9.80;4.50;;;-2.40;99.90;;;;;;4977782;28;20466;-71
2021/12/21 05:57:46;;;;;;;11.17;4.20;;;-2.30;99.90;;;;;;4978670;28;20491;-74
2021/12/21 06:00:19;;;;;;;12.07;5.10;;;-2.30;99.90;;;;;;4985982;28;20455;-70
2021/12/21 06:02:46;;;;;;;13.47;4.80;;;-2.10;99.90;;;;;;4989685;28;20448;-72
2021/12/21 06:05:13;;;;;;;9.77;3.53;;;-2.10;99.90;;;;;;4990444;28;20509;-69
2021/12/21 06:07:39;;;;;;;10.37;4.40;;;-2.10;99.90;;;;;;4987548;28;20464;-71
2021/12/21 06:10:12;;;;;;;9.67;4.23;;;-2.40;99.90;;;;;;4990733;28;20450;-70
2021/12/21 06:15:22;;;;;;;8.43;3.87;;;-2.70;99.90;;;;;;4991509;28;20499;-70
2021/12/21 06:26:10;;;;;;;6.03;3.40;;;-2.50;99.90;;;;;;4996925;28;20455;-73
2021/12/21 06:28:37;;;;;;;7.63;3.23;;;-2.50;99.90;;;;;;4990585;28;20455;-70
2021/12/21 06:31:04;;;;;;;5.43;3.30;;;-2.50;99.90;;;;;;4984055;28;20464;-72
2021/12/21 06:33:31;;;;;;;6.40;3.50;;;-2.70;99.90;;;;;;4990423;28;20476;-70
2021/12/21 06:35:59;;;;;;;7.20;3.70;;;-2.70;99.90;;;;;;4997458;28;20461;-74
2021/12/21 06:38:32;;;;;;;8.23;4.50;;;-2.80;99.90;;;;;;4995092;28;20484;-70
2021/12/21 06:40:59;;;;;;;9.60;3.80;;;-2.90;99.90;;;;;;4989585;28;20445;-74
2021/12/21 06:43:25;;;;;;;7.17;3.70;;;-2.90;99.90;;;;;;4991319;28;20830;-69
2021/12/21 06:46:10;;;;;;;12.40;3.93;;;-2.90;99.90;;;;;;4993436;28;21038;-70
2021/12/21 06:51:41;;;;;;;9.47;4.63;;;-2.90;99.90;;;;;;4991662;28;20448;-70
2021/12/21 06:54:07;;;;;;;11.57;4.90;;;-2.90;99.90;;;;;;4989757;28;20479;-70
2021/12/21 06:56:34;;;;;;;21.43;5.50;;;-2.90;99.90;;;;;;4994494;28;20440;-72
2021/12/21 06:59:01;;;;;;;13.27;4.17;;;-2.90;99.90;;;;;;4984628;28;20486;-75
2021/12/21 07:01:28;;;;;;;18.03;4.50;;;-2.80;99.90;;;;;;4989835;28;20816;-70
2021/12/21 07:03:57;;;;;;;8.30;3.50;;;-2.80;99.90;;;;;;4992223;28;20468;-72
2021/12/21 07:06:25;;;;;;;9.47;4.07;;;-2.80;99.90;;;;;;4984314;28;20454;-71
2021/12/21 07:09:17;;;;;;;12.97;4.13;;;-2.80;99.90;;;;;;4981970;28;21244;-74
2021/12/21 07:11:46;;;;;;;12.10;4.33;;;-2.80;99.90;;;;;;4986192;28;20461;-72
2021/12/21 07:19:44;;;;;;;8.57;4.03;;;-2.80;99.90;;;;;;4991157;28;20455;-71
2021/12/21 07:22:12;;;;;;;7.67;4.00;;;-2.80;99.90;;;;;;4993601;28;20455;-71
2021/12/21 07:24:40;;;;;;;10.37;4.03;;;-2.80;99.90;;;;;;4987138;28;20480;-69
2021/12/21 07:27:07;;;;;;;13.20;5.00;;;-2.60;99.90;;;;;;4983231;28;20468;-70
2021/12/21 07:29:33;;;;;;;12.70;5.33;;;-2.50;99.90;;;;;;4987915;28;20890;-72
2021/12/21 07:32:00;;;;;;;11.73;5.33;;;-2.60;99.90;;;;;;4993703;28;20463;-74
2021/12/21 07:34:27;;;;;;;13.90;6.50;;;-2.80;99.90;;;;;;4994384;28;20498;-69
2021/12/21 07:36:53;;;;;;;14.50;5.73;;;-2.70;99.90;;;;;;4987465;28;20453;-69
2021/12/21 07:39:20;;;;;;;13.63;5.47;;;-2.60;99.90;;;;;;4991827;28;20800;-73
2021/12/21 07:42:07;;;;;;;12.73;5.20;;;-2.60;99.90;;;;;;4986526;28;20448;-71
2021/12/21 07:44:34;;;;;;;9.50;4.67;;;-2.70;99.90;;;;;;4985027;28;20471;-71
2021/12/21 07:47:00;;;;;;;10.30;4.90;;;-2.70;99.90;;;;;;5008200;28;20475;-76
2021/12/21 07:49:27;;;;;;;10.03;4.70;;;-2.70;99.90;;;;;;4987140;28;20460;-70
2021/12/21 07:51:55;;;;;;;8.67;4.43;;;-2.80;99.90;;;;;;4987984;28;20808;-74
2021/12/21 07:54:22;;;;;;;11.90;4.80;;;-2.70;99.90;;;;;;4977669;28;20478;-71
2021/12/21 07:56:49;;;;;;;8.73;4.27;;;-2.50;99.90;;;;;;4988676;28;20468;-71
2021/12/21 07:59:15;;;;;;;11.30;5.17;;;-2.40;99.90;;;;;;4985105;28;20481;-72
2021/12/21 08:01:42;;;;;;;11.10;4.60;;;-2.20;99.90;;;;;;4987892;28;20453;-69
2021/12/21 08:04:10;;;;;;;11.03;4.57;;;-2.10;99.90;;;;;;4984551;28;20476;-72
2021/12/21 08:06:37;;;;;;;11.17;5.70;;;-2.20;99.90;;;;;;4984180;28;21097;-69
2021/12/21 08:09:05;;;;;;;15.83;6.40;;;-2.10;99.90;;;;;;4986709;28;20471;-70
2021/12/21 08:14:03;;;;;;;10.73;6.13;;;-2.00;99.90;;;;;;4993408;28;20472;-73
2021/12/21 08:16:32;;;;;;;13.73;5.80;;;-2.10;99.90;;;;;;4991495;28;20601;-70
2021/12/21 08:18:59;;;;;;;7.67;4.13;;;-2.10;99.90;;;;;;4990538;28;20476;-69
2021/12/21 08:21:26;;;;;;;7.70;4.07;;;-2.10;99.90;;;;;;4998567;28;21314;-69
2021/12/21 08:23:53;;;;;;;7.07;4.07;;;-2.10;99.90;;;;;;5010774;28;20885;-69
2021/12/21 08:26:20;;;;;;;12.03;4.40;;;-2.10;99.90;;;;;;4987481;28;20459;-70
2021/12/21 08:28:47;;;;;;;8.50;4.80;;;-2.00;99.90;;;;;;4983560;28;20468;-67
2021/12/21 08:31:13;;;;;;;11.10;5.23;;;-2.00;99.90;;;;;;4993024;28;20452;-69
2021/12/21 08:33:41;;;;;;;8.87;4.30;;;-2.00;99.90;;;;;;4996188;28;20459;-70
2021/12/21 08:36:10;;;;;;;7.73;4.53;;;-1.90;99.90;;;;;;4995671;28;20456;-71
2021/12/21 08:38:41;;;;;;;8.00;4.27;;;-1.80;99.90;;;;;;4988701;28;20995;-70
2021/12/21 08:41:08;;;;;;;11.07;4.67;;;-1.90;99.90;;;;;;4990517;28;20452;-69
2021/12/21 08:43:36;;;;;;;9.57;4.73;;;-1.70;99.90;;;;;;4994513;28;20462;-71
2021/12/21 08:46:03;;;;;;;7.17;4.10;;;-1.60;99.90;;;;;;4989426;28;20450;-72
2021/12/21 08:48:31;;;;;;;8.27;4.97;;;-1.50;99.90;;;;;;4991114;28;20435;-69
2021/12/21 08:50:58;;;;;;;7.33;3.50;;;-1.50;99.90;;;;;;5003788;28;20497;-69
2021/12/21 08:53:25;;;;;;;8.87;4.20;;;-1.40;99.90;;;;;;4999455;28;20549;-69
2021/12/21 08:55:53;;;;;;;7.90;4.47;;;-1.30;99.90;;;;;;4990430;28;20438;-70
2021/12/21 08:58:20;;;;;;;8.73;4.07;;;-1.30;99.90;;;;;;4987432;28;21022;-69
2021/12/21 09:00:49;;;;;;;9.67;4.63;;;-1.20;99.90;;;;;;4992201;28;20197;-73
2021/12/21 09:03:16;;;;;;;7.83;4.57;;;-1.00;99.90;;;;;;4986139;28;20216;-71
2021/12/21 09:05:43;;;;;;;14.67;4.83;;;-0.90;99.90;;;;;;4980535;28;20220;-71
2021/12/21 09:08:11;;;;;;;13.63;5.20;;;-0.80;99.90;;;;;;4999859;28;20200;-70
2021/12/21 09:10:41;;;;;;;11.00;4.90;;;-0.70;99.90;;;;;;4992826;28;20205;-71
2021/12/21 09:13:09;;;;;;;12.97;4.80;;;-0.60;99.90;;;;;;4992058;28;20511;-66
2021/12/21 09:15:37;;;;;;;11.17;4.27;;;-0.50;99.90;;;;;;4994997;28;20201;-69
2021/12/21 09:18:05;;;;;;;8.83;4.50;;;-0.40;99.90;;;;;;5012059;28;20223;-69
2021/12/21 09:20:33;;;;;;;8.33;4.40;;;-0.30;99.90;;;;;;4990364;28;20201;-70
2021/12/21 09:23:00;;;;;;;8.93;4.23;;;-0.20;99.90;;;;;;4991229;28;20221;-70
2021/12/21 09:25:27;;;;;;;11.57;4.77;;;-0.10;99.90;;;;;;5007794;28;20224;-72
2021/12/21 09:27:55;;;;;;;9.40;4.53;;;0.00;99.90;;;;;;4991830;28;20188;-70
2021/12/21 09:30:25;;;;;;;8.30;4.60;;;0.20;99.90;;;;;;4990356;28;20196;-70
2021/12/21 09:32:52;;;;;;;10.73;4.83;;;0.30;99.90;;;;;;4985393;28;20201;-72
2021/12/21 09:35:19;;;;;;;8.67;5.17;;;0.30;99.90;;;;;;4989672;28;20241;-69
2021/12/21 09:37:46;;;;;;;8.10;5.13;;;0.40;99.90;;;;;;4978136;28;20201;-71
2021/12/21 09:40:17;;;;;;;9.43;4.90;;;0.50;99.90;;;;;;4983439;28;20211;-69
2021/12/21 09:42:44;;;;;;;11.50;5.90;;;0.80;99.90;;;;;;5010298;28;20214;-71
2021/12/21 09:45:11;;;;;;;12.93;5.87;;;0.90;99.90;;;;;;4995342;28;20200;-69
2021/12/21 09:47:38;;;;;;;13.27;6.57;;;0.80;99.90;;;;;;4983132;28;20265;-71
2021/12/21 09:50:08;;;;;;;11.67;6.40;;;0.60;99.90;;;;;;4984172;28;20283;-70
2021/12/21 09:52:35;;;;;;;13.27;6.37;;;0.70;99.90;;;;;;4984173;28;20204;-71
2021/12/21 09:55:06;;;;;;;10.90;5.73;;;0.90;99.90;;;;;;4988552;28;20213;-69
2021/12/21 09:57:34;;;;;;;13.47;6.33;;;1.00;99.90;;;;;;4994737;28;20207;-74
2021/12/21 10:00:03;;;;;;;13.57;6.67;;;1.10;99.90;;;;;;4990589;28;20236;-73
2021/12/21 10:02:33;;;;;;;10.30;5.77;;;1.30;99.90;;;;;;4989985;28;20190;-70
2021/12/21 10:05:06;;;;;;;12.27;6.53;;;1.30;99.90;;;;;;4992502;28;20250;-70
2021/12/21 10:07:34;;;;;;;18.10;6.67;;;1.30;99.90;;;;;;4995220;28;20201;-72
2021/12/21 10:10:08;;;;;;;17.53;5.97;;;1.40;99.90;;;;;;4992903;28;20205;-72
2021/12/21 10:12:46;;;;;;;13.43;5.13;;;1.70;99.90;;;;;;4993656;28;20202;-74
2021/12/21 10:15:24;;;;;;;10.77;4.90;;;1.70;99.90;;;;;;4987297;28;20224;-70
2021/12/21 10:17:53;;;;;;;18.20;5.23;;;1.60;99.90;;;;;;4987078;28;20210;-72
2021/12/21 10:20:47;;;;;;;13.27;4.80;;;1.80;99.90;;;;;;4982822;28;20673;-69
2021/12/21 10:23:21;;;;;;;14.50;5.10;;;1.90;99.90;;;;;;4982248;28;20227;-71
2021/12/21 10:25:50;;;;;;;15.50;5.37;;;2.00;99.90;;;;;;4992832;28;20683;-70
2021/12/21 10:28:37;;;;;;;13.37;4.37;;;2.10;99.90;;;;;;4985004;28;20197;-71
2021/12/21 10:31:22;;;;;;;14.27;4.60;;;2.10;99.90;;;;;;4988482;28;20645;-73
2021/12/21 10:33:49;;;;;;;12.20;5.30;;;2.10;99.90;;;;;;4988603;28;20590;-71
2021/12/21 10:36:17;;;;;;;12.73;4.50;;;2.10;99.90;;;;;;4986375;28;20279;-73
2021/12/21 10:38:50;;;;;;;10.57;4.13;;;2.10;99.90;;;;;;4987744;28;20277;-69
2021/12/21 10:41:40;;;;;;;10.30;4.10;;;2.20;99.90;;;;;;4991652;28;20575;-70
2021/12/21 10:44:16;;;;;;;12.07;4.53;;;2.20;99.90;;;;;;4987987;28;20675;-69
2021/12/21 10:46:46;;;;;;;10.17;3.50;;;2.40;99.90;;;;;;4983034;28;20203;-70
2021/12/21 10:49:31;;;;;;;9.50;4.00;;;2.40;99.90;;;;;;4984123;28;20266;-71
2021/12/21 10:52:07;;;;;;;7.37;3.60;;;2.50;99.90;;;;;;4986972;28;20588;-69
2021/12/21 10:54:41;;;;;;;8.87;3.90;;;2.70;99.90;;;;;;4981222;28;20481;-73
2021/12/21 10:57:19;;;;;;;8.77;3.50;;;2.80;99.90;;;;;;4984338;28;20678;-67
2021/12/21 10:59:48;;;;;;;12.33;3.70;;;2.90;99.90;;;;;;4994042;28;20224;-70
2021/12/21 11:02:24;;;;;;;5.63;3.20;;;3.10;99.90;;;;;;4991727;28;20201;-72
2021/12/21 11:05:12;;;;;;;10.00;3.40;;;3.30;99.90;;;;;;4993002;28;20227;-72
2021/12/21 11:07:43;;;;;;;10.90;3.37;;;3.30;99.90;;;;;;4990286;28;20204;-70
2021/12/21 11:10:17;;;;;;;9.67;3.33;;;3.30;99.90;;;;;;4986175;28;20200;-74
2021/12/21 11:13:09;;;;;;;9.30;2.87;;;3.30;99.90;;;;;;4983295;28;20228;-69
2021/12/21 11:15:52;;;;;;;8.20;3.10;;;3.40;99.90;;;;;;4985180;28;20212;-73
2021/12/21 11:18:21;;;;;;;6.60;3.93;;;3.40;99.90;;;;;;4987342;28;20204;-74
2021/12/21 11:20:53;;;;;;;7.03;3.10;;;3.60;99.90;;;;;;4984326;28;20257;-69
2021/12/21 11:23:22;;;;;;;5.27;2.70;;;3.60;99.90;;;;;;4986370;28;20219;-72
2021/12/21 11:25:53;;;;;;;6.37;2.57;;;3.60;99.90;;;;;;4991809;28;20200;-69
2021/12/21 11:28:22;;;;;;;7.07;2.80;;;3.80;99.90;;;;;;4989240;28;20201;-69
2021/12/21 11:30:50;;;;;;;8.00;2.50;;;3.80;99.90;;;;;;4992854;28;20199;-69
2021/12/21 11:33:18;;;;;;;6.67;2.40;;;3.90;99.90;;;;;;4986743;28;20669;-70
2021/12/21 11:38:32;;;;;;;11.67;2.80;;;3.90;99.90;;;;;;4986178;28;20282;-71
2021/12/21 11:40:59;;;;;;;9.03;2.60;;;3.90;99.90;;;;;;4988744;28;20668;-68
2021/12/21 11:43:39;;;;;;;4.53;2.13;;;3.90;99.90;;;;;;4990789;28;20217;-70
2021/12/21 11:46:11;;;;;;;5.33;2.20;;;3.90;99.90;;;;;;4983966;28;20204;-72
2021/12/21 11:48:58;;;;;;;5.13;2.40;;;4.10;99.90;;;;;;4993757;28;20200;-70
2021/12/21 11:51:27;;;;;;;3.63;2.20;;;4.10;99.90;;;;;;4988763;28;20197;-74
2021/12/21 11:53:55;;;;;;;3.53;2.20;;;4.20;99.90;;;;;;4987876;28;20727;-70
2021/12/21 11:56:25;;;;;;;3.93;2.37;;;4.20;99.90;;;;;;4996741;28;20203;-71
2021/12/21 11:58:54;;;;;;;8.90;2.70;;;4.20;99.90;;;;;;4988829;28;20292;-69
2021/12/21 12:01:26;;;;;;;4.63;2.83;;;4.20;99.90;;;;;;4995195;28;20255;-69
2021/12/21 12:04:04;;;;;;;11.07;2.77;;;4.10;99.90;;;;;;4993422;28;20218;-68
2021/12/21 12:06:57;;;;;;;11.73;3.00;;;4.20;99.90;;;;;;4991700;28;20246;-70
2021/12/21 12:09:25;;;;;;;9.23;2.47;;;4.20;99.90;;;;;;4987159;28;20208;-68
2021/12/21 12:12:04;;;;;;;6.13;2.00;;;4.30;99.90;;;;;;4992376;28;20200;-69
2021/12/21 12:14:30;;;;;;;6.60;2.47;;;4.30;99.90;;;;;;5004255;28;20227;-69
2021/12/21 12:17:02;;;;;;;7.87;3.00;;;4.30;99.90;;;;;;4991883;28;20219;-69
2021/12/21 12:19:34;;;;;;;6.37;2.50;;;4.40;99.90;;;;;;4991308;28;20230;-70
2021/12/21 12:22:09;;;;;;;5.60;2.40;;;4.50;99.90;;;;;;4994387;28;20192;-73
2021/12/21 12:24:45;;;;;;;10.37;2.63;;;4.50;99.90;;;;;;4991047;28;20227;-69
2021/12/21 12:27:20;;;;;;;9.33;2.67;;;4.50;99.90;;;;;;4997079;28;20231;-72
2021/12/21 12:29:51;;;;;;;7.63;2.77;;;4.60;99.90;;;;;;4995421;28;20206;-68
2021/12/21 12:32:42;;;;;;;8.23;2.80;;;4.60;99.90;;;;;;4994631;28;20253;-69
2021/12/21 12:35:18;;;;;;;5.97;3.00;;;4.60;99.90;;;;;;4989279;28;20713;-69
2021/12/21 12:38:21;;;;;;;5.90;2.70;;;4.70;99.90;;;;;;4996398;28;20595;-68
2021/12/21 12:40:47;;;;;;;5.00;2.40;;;4.80;99.90;;;;;;4992348;28;20245;-69
2021/12/21 12:43:23;;;;;;;5.20;2.03;;;4.70;99.90;;;;;;5000920;28;20216;-69
2021/12/21 12:46:04;;;;;;;3.90;1.80;;;4.80;99.90;;;;;;4995601;28;20274;-70
2021/12/21 12:48:32;;;;;;;6.33;1.87;;;4.80;99.90;;;;;;4993658;28;20214;-69
2021/12/21 12:51:04;;;;;;;5.63;1.83;;;4.70;99.90;;;;;;4990897;28;20198;-68
2021/12/21 12:53:44;;;;;;;4.77;1.97;;;4.70;99.90;;;;;;4987546;28;20719;-71
2021/12/21 12:56:18;;;;;;;3.43;1.80;;;4.80;99.90;;;;;;4989289;28;20658;-72
2021/12/21 12:58:48;;;;;;;4.27;1.70;;;4.70;99.90;;;;;;4986764;28;20204;-69
2021/12/21 13:01:21;;;;;;;3.17;1.80;;;4.80;99.90;;;;;;4998602;28;20207;-74
2021/12/21 13:03:48;;;;;;;5.43;2.43;;;4.80;99.90;;;;;;4990186;28;20268;-69
2021/12/21 13:06:18;;;;;;;5.40;2.53;;;4.70;99.90;;;;;;4984032;28;20277;-74
2021/12/21 13:08:45;;;;;;;6.53;2.70;;;4.80;99.90;;;;;;4989550;28;20222;-70
2021/12/21 13:11:18;;;;;;;4.73;2.53;;;4.70;99.90;;;;;;4991433;28;20193;-69
2021/12/21 13:13:46;;;;;;;4.23;2.20;;;4.80;99.90;;;;;;4988455;28;20221;-74
2021/12/21 13:16:19;;;;;;;4.67;2.00;;;4.70;99.90;;;;;;4988873;28;20199;-71
2021/12/21 13:18:54;;;;;;;4.90;2.37;;;4.70;99.90;;;;;;4980577;28;20657;-70
2021/12/21 13:21:51;;;;;;;7.17;2.40;;;4.70;99.90;;;;;;4995110;28;20204;-70
2021/12/21 13:24:25;;;;;;;7.83;2.50;;;4.60;99.90;;;;;;4985805;28;20320;-69
2021/12/21 13:26:55;;;;;;;5.23;2.30;;;4.50;99.90;;;;;;4992373;28;20202;-69
2021/12/21 13:29:30;;;;;;;8.90;2.57;;;4.50;99.90;;;;;;4991593;28;20204;-69
2021/12/21 13:32:00;;;;;;;5.50;2.50;;;4.50;99.90;;;;;;4987672;28;20212;-71
2021/12/21 13:34:28;;;;;;;3.97;2.30;;;4.50;99.90;;;;;;4988804;28;20225;-68
2021/12/21 13:36:59;;;;;;;9.33;3.60;;;4.50;99.90;;;;;;4990837;28;20205;-69
2021/12/21 13:39:35;;;;;;;6.23;3.27;;;4.40;99.90;;;;;;4990990;28;20575;-71
2021/12/21 13:42:06;;;;;;;6.93;2.87;;;4.30;99.90;;;;;;4987992;28;20215;-69
2021/12/21 13:44:35;;;;;;;5.13;3.10;;;4.30;99.90;;;;;;4990561;28;20228;-69
2021/12/21 13:47:22;;;;;;;9.17;2.93;;;4.40;99.90;;;;;;4987879;28;20283;-69
2021/12/21 13:50:04;;;;;;;10.43;3.43;;;4.30;99.90;;;;;;4988738;28;20220;-69
2021/12/21 13:52:35;;;;;;;5.63;2.80;;;4.30;99.90;;;;;;4984315;28;20193;-70
2021/12/21 13:55:05;;;;;;;7.90;3.47;;;4.20;99.90;;;;;;4987586;28;20217;-72
2021/12/21 13:57:33;;;;;;;10.13;3.53;;;4.20;99.90;;;;;;4987527;28;20212;-70
2021/12/21 14:00:07;;;;;;;7.67;3.70;;;4.10;99.90;;;;;;4985795;28;20282;-71
2021/12/21 14:02:36;;;;;;;7.63;3.40;;;4.20;99.90;;;;;;4989355;28;20302;-70